Wattensaw, Arkansas
Current Conditions -  °F | °C
As of 5:58 PM on Saturday 20 Dec 2014 (Local Time) from KLRF Reporting Station
Overcast Overcast  
Wind Chill: 44°   Ceiling: 4900
Heat Index: 44°   Visibility: 10mi
Dew Point: 37°   Wind: 3mph
Humidity: 76%   Direction: 40°NE
Pressure: 30.23"   Gusts: NA
Location:  34.7557°N, 91.9476°W
Report Text: KLRF 202358Z AUTO 04003KT 10SM OVC049 07/03 A3023 RMK AO2 SLP241 T00680029 10089 20068 51006
Loading
Personal Weather Stations






























Interactive Weather Map New forecast layout! Learn more

10-Day Weather Forecast

Advertisements
Track Severe Weather on mobile